Time;durP1;ratioP1;P1;durP2;ratioP2;P2;SDS_P1;SDS_P2;PMS_P1;PMS_P2;Temp;Humidity;BMP_temperature;BMP_pressure;BME280_temperature;BME280_humidity;BME280_pressure;Samples;Min_cycle;Max_cycle;Signal;HPM_P1;HPM_P2
2022/04/20 00:00:36;;;;;;;3.03;1.10;;;;;;;10.24;41.47;100139.81;5114978;28;20108;-76
2022/04/20 00:03:03;;;;;;;2.95;1.20;;;;;;;10.17;41.76;100130.91;5114219;28;20454;-76
2022/04/20 00:05:33;;;;;;;3.50;1.20;;;;;;;10.20;41.79;100139.44;5114541;28;20028;-76
2022/04/20 00:08:00;;;;;;;3.70;1.17;;;;;;;10.18;42.34;100137.97;5114587;28;20051;-77
2022/04/20 00:10:26;;;;;;;2.78;1.10;;;;;;;10.04;42.44;100140.63;5114109;28;20066;-76
2022/04/20 00:12:51;;;;;;;2.40;1.00;;;;;;;10.08;42.59;100131.13;5114326;28;20509;-76
2022/04/20 00:15:16;;;;;;;2.67;1.10;;;;;;;10.08;42.83;100128.44;5114750;28;20040;-76
2022/04/20 00:17:41;;;;;;;2.17;0.80;;;;;;;9.99;42.56;100136.94;5114383;28;20024;-76
2022/04/20 00:20:07;;;;;;;3.20;1.20;;;;;;;10.05;42.13;100131.53;5114085;28;20083;-77
2022/04/20 00:22:33;;;;;;;2.60;1.00;;;;;;;10.05;42.47;100126.16;5113236;28;20079;-77
2022/04/20 00:24:58;;;;;;;2.63;1.00;;;;;;;10.10;41.99;100128.22;5114188;28;20040;-76
2022/04/20 00:27:23;;;;;;;2.90;1.10;;;;;;;9.94;42.43;100129.47;5095861;28;20040;-76
2022/04/20 00:29:48;;;;;;;4.17;1.20;;;;;;;9.89;42.02;100140.03;5113717;28;20063;-76
2022/04/20 00:32:14;;;;;;;3.67;1.10;;;;;;;10.02;42.21;100141.91;5114190;28;20355;-76
2022/04/20 00:34:39;;;;;;;3.10;1.10;;;;;;;9.94;42.79;100139.41;5113862;28;20062;-76
2022/04/20 00:37:04;;;;;;;3.63;1.30;;;;;;;9.84;42.96;100147.91;5114262;28;20027;-77
2022/04/20 00:39:30;;;;;;;3.57;1.10;;;;;;;9.73;43.00;100143.97;5113845;28;20109;-76
2022/04/20 00:41:55;;;;;;;2.57;0.90;;;;;;;9.71;43.61;100142.50;5114022;28;20031;-76
2022/04/20 00:44:21;;;;;;;4.32;1.25;;;;;;;9.78;43.44;100140.66;5113525;28;20523;-76
2022/04/20 00:46:47;;;;;;;2.40;0.82;;;;;;;9.74;43.27;100142.94;5113700;28;20044;-76
2022/04/20 00:49:16;;;;;;;;;;;;;;;9.79;43.98;100141.50;5114285;28;20114;-77
2022/04/20 00:51:57;;;;;;;3.88;1.40;;;;;;;9.80;43.72;100138.59;5113622;28;19918;-76
2022/04/20 00:54:23;;;;;;;3.30;1.05;;;;;;;9.81;43.13;100148.31;5113893;28;20035;-76
2022/04/20 00:56:48;;;;;;;3.00;1.27;;;;;;;9.81;43.33;100142.13;5113622;28;20382;-76
2022/04/20 00:59:16;;;;;;;3.77;1.17;;;;;;;9.58;43.76;100147.88;5113454;28;20042;-76
2022/04/20 01:01:41;;;;;;;3.08;1.00;;;;;;;9.55;43.93;100138.34;5113749;28;20493;-76
2022/04/20 01:04:06;;;;;;;2.50;0.93;;;;;;;9.57;43.73;100143.53;5113431;28;20063;-76
2022/04/20 01:06:32;;;;;;;3.23;1.07;;;;;;;9.55;44.13;100140.22;5113655;28;20054;-76
2022/04/20 01:08:57;;;;;;;2.27;0.90;;;;;;;9.52;43.86;100146.00;5113359;28;20036;-76
2022/04/20 01:11:23;;;;;;;3.90;1.10;;;;;;;9.51;44.23;100139.78;5113722;28;20062;-76
2022/04/20 01:13:48;;;;;;;2.97;0.80;;;;;;;9.44;44.02;100140.84;5113652;28;20090;-76
2022/04/20 01:16:13;;;;;;;2.67;1.00;;;;;;;9.39;44.58;100139.56;5113697;28;20258;-76
2022/04/20 01:18:45;;;;;;;3.90;1.17;;;;;;;9.42;44.41;100140.22;5113331;28;20027;-76
2022/04/20 01:21:11;;;;;;;2.72;0.88;;;;;;;9.38;44.42;100137.91;5113242;28;20062;-76
2022/04/20 01:23:37;;;;;;;3.95;1.35;;;;;;;9.39;45.14;100144.13;5113256;28;20074;-76
2022/04/20 01:26:09;;;;;;;2.63;1.13;;;;;;;9.38;44.69;100146.00;5113293;28;20039;-76
2022/04/20 01:28:36;;;;;;;2.95;1.10;;;;;;;9.38;44.38;100143.28;5113250;28;20070;-76
2022/04/20 01:31:02;;;;;;;3.00;1.15;;;;;;;9.29;44.92;100147.22;5113151;28;20024;-76
2022/04/20 01:33:27;;;;;;;;;;;;;;;9.30;45.08;100140.00;5113673;28;20378;-77
2022/04/20 01:35:53;;;;;;;3.03;1.10;;;;;;;9.20;45.38;100140.34;5116752;28;19911;-77
2022/04/20 01:38:18;;;;;;;7.10;1.20;;;;;;;9.32;45.55;100141.41;5117195;28;20374;-76
2022/04/20 01:40:43;;;;;;;2.63;1.07;;;;;;;9.23;45.87;100148.03;5117146;28;20032;-76
2022/04/20 01:43:08;;;;;;;3.57;1.50;;;;;;;9.08;46.13;100141.16;5117301;28;20075;-76
2022/04/20 01:45:34;;;;;;;3.80;1.23;;;;;;;9.11;46.29;100143.44;5117308;28;20027;-77
2022/04/20 01:47:59;;;;;;;2.70;1.20;;;;;;;9.08;46.40;100142.00;5117013;28;20063;-76
2022/04/20 01:50:24;;;;;;;4.07;1.30;;;;;;;9.05;46.26;100139.69;5116646;28;20024;-77
2022/04/20 01:52:50;;;;;;;4.20;1.40;;;;;;;9.04;46.64;100143.41;5117013;28;20043;-76
2022/04/20 01:55:17;;;;;;;4.00;1.30;;;;;;;8.96;47.14;100140.88;5116903;28;20024;-76
2022/04/20 01:57:42;;;;;;;3.78;1.20;;;;;;;8.85;47.44;100146.84;5098639;28;20439;-76
2022/04/20 02:00:08;;;;;;;3.53;1.10;;;;;;;8.80;47.70;100141.25;5116794;28;20118;-76
2022/04/20 02:02:38;;;;;;;3.20;1.20;;;;;;;8.90;47.50;100144.41;5116962;28;20458;-76
2022/04/20 02:05:05;;;;;;;3.00;1.20;;;;;;;8.80;47.75;100152.00;5116941;28;20035;-76
2022/04/20 02:07:31;;;;;;;3.42;1.27;;;;;;;8.71;48.36;100148.66;5116635;28;20096;-76
2022/04/20 02:09:57;;;;;;;2.50;1.10;;;;;;;8.69;48.48;100154.22;5098545;28;20038;-76
2022/04/20 02:12:22;;;;;;;3.23;1.30;;;;;;;8.74;48.30;100153.63;5116822;28;20027;-76
2022/04/20 02:14:47;;;;;;;2.50;0.87;;;;;;;8.82;48.39;100152.63;5116497;28;20381;-76
2022/04/20 02:17:13;;;;;;;3.53;1.53;;;;;;;8.77;49.04;100160.47;5117379;28;20085;-76
2022/04/20 02:19:38;;;;;;;6.03;2.30;;;;;;;8.64;48.82;100156.66;5116871;28;20024;-76
2022/04/20 02:22:05;;;;;;;3.70;1.27;;;;;;;8.65;48.85;100150.28;5116675;28;20038;-77
2022/04/20 02:24:30;;;;;;;3.78;1.40;;;;;;;8.53;49.10;100154.56;5116468;28;20031;-76
2022/04/20 02:26:55;;;;;;;3.80;1.35;;;;;;;8.52;49.24;100150.22;5113345;28;20087;-77
2022/04/20 02:29:21;;;;;;;4.40;1.63;;;;;;;8.47;49.09;100146.44;5116294;28;20431;-76
2022/04/20 02:31:46;;;;;;;3.80;1.40;;;;;;;8.54;48.87;100147.34;5116252;28;20028;-76
2022/04/20 02:34:12;;;;;;;3.03;1.40;;;;;;;8.31;49.35;100153.75;5115214;28;20067;-76
2022/04/20 02:36:37;;;;;;;6.30;2.00;;;;;;;8.28;49.79;100158.69;5116469;28;20028;-76
2022/04/20 02:39:04;;;;;;;5.77;1.40;;;;;;;8.26;49.95;100160.75;5116459;28;20043;-76
2022/04/20 02:41:32;;;;;;;3.40;1.15;;;;;;;8.24;50.04;100152.09;5116177;28;20406;-76
2022/04/20 02:43:57;;;;;;;3.50;1.33;;;;;;;8.21;49.95;100155.97;5115983;28;20027;-76
2022/04/20 02:46:23;;;;;;;4.37;1.73;;;;;;;8.16;50.01;100160.28;5114944;28;20035;-76
2022/04/20 02:48:49;;;;;;;3.25;1.40;;;;;;;8.05;50.45;100161.66;5116589;28;20253;-76
2022/04/20 02:51:15;;;;;;;4.22;1.60;;;;;;;8.04;50.31;100165.34;5115646;28;20030;-76
2022/04/20 02:53:40;;;;;;;4.17;1.57;;;;;;;7.99;50.67;100157.06;5115847;28;20035;-76
2022/04/20 02:56:05;;;;;;;4.80;1.50;;;;;;;7.93;51.14;100155.13;5115757;28;20055;-76
2022/04/20 02:58:31;;;;;;;2.93;1.20;;;;;;;7.89;50.83;100159.22;5115183;28;20034;-76
2022/04/20 03:00:56;;;;;;;2.77;1.23;;;;;;;7.84;50.98;100165.19;5115671;28;20111;-76
2022/04/20 03:03:21;;;;;;;3.13;1.30;;;;;;;7.90;51.15;100160.88;5115543;28;20466;-76
2022/04/20 03:05:48;;;;;;;3.80;1.20;;;;;;;7.97;51.05;100159.09;5115771;28;20030;-76
2022/04/20 03:08:13;;;;;;;3.63;1.60;;;;;;;7.86;51.22;100155.09;5114055;28;20096;-76
2022/04/20 03:10:39;;;;;;;3.38;1.00;;;;;;;7.83;51.25;100158.16;5115256;28;20093;-76
2022/04/20 03:13:04;;;;;;;4.18;1.60;;;;;;;7.75;51.82;100158.28;5115125;28;20146;-76
2022/04/20 03:15:30;;;;;;;5.60;1.70;;;;;;;7.66;51.82;100154.09;5115331;28;20032;-76
2022/04/20 03:17:57;;;;;;;4.00;1.20;;;;;;;7.68;51.68;100157.41;5113704;28;20039;-76
2022/04/20 03:20:23;;;;;;;4.22;1.67;;;;;;;7.62;52.11;100164.38;5115190;28;20115;-76
2022/04/20 03:22:49;;;;;;;3.15;1.38;;;;;;;7.64;52.43;100164.19;5115206;28;20069;-77
2022/04/20 03:25:14;;;;;;;3.83;1.70;;;;;;;7.54;52.08;100164.47;5115237;28;20035;-77
2022/04/20 03:27:39;;;;;;;5.13;2.13;;;;;;;7.51;52.64;100159.53;5115576;28;20056;-76
2022/04/20 03:30:05;;;;;;;4.30;1.80;;;;;;;7.51;52.50;100167.56;5115076;28;20299;-77
2022/04/20 03:32:31;;;;;;;4.93;1.67;;;;;;;7.45;52.56;100159.47;5115472;28;20028;-76
2022/04/20 03:34:57;;;;;;;3.97;1.55;;;;;;;7.45;52.69;100162.97;5114783;28;20032;-76
2022/04/20 03:37:22;;;;;;;4.35;1.60;;;;;;;7.39;53.29;100160.22;5114539;28;20031;-76
2022/04/20 03:39:47;;;;;;;6.10;1.93;;;;;;;7.47;52.94;100165.47;5114498;28;20386;-77
2022/04/20 03:42:13;;;;;;;4.57;1.67;;;;;;;7.39;52.90;100166.41;5114299;28;20035;-76
2022/04/20 03:44:39;;;;;;;4.25;1.70;;;;;;;7.38;53.40;100174.63;5114295;28;20249;-76
2022/04/20 03:47:05;;;;;;;4.63;1.60;;;;;;;7.39;53.31;100173.59;5114735;28;20107;-76
2022/04/20 03:49:31;;;;;;;4.47;1.52;;;;;;;7.29;53.41;100176.63;5114359;28;20035;-76
2022/04/20 03:51:57;;;;;;;5.07;1.63;;;;;;;7.37;53.30;100176.47;5114397;28;20043;-75
2022/04/20 03:54:22;;;;;;;5.82;1.73;;;;;;;7.35;53.46;100175.00;5114269;28;20382;-76
2022/04/20 03:59:32;;;;;;;4.32;1.60;;;;;;;7.17;54.33;100181.63;5114330;28;20035;-76
2022/04/20 04:01:58;;;;;;;4.95;2.10;;;;;;;7.16;54.40;100177.31;5114691;28;20027;-77
2022/04/20 04:04:24;;;;;;;;;;;;;;;7.09;54.88;100180.91;5115671;28;20040;-76
2022/04/20 04:06:49;;;;;;;3.90;1.60;;;;;;;7.13;54.35;100179.53;5114586;28;19915;-76
2022/04/20 04:09:15;;;;;;;3.70;1.57;;;;;;;7.02;55.36;100183.50;5113848;28;20262;-77
2022/04/20 04:11:40;;;;;;;3.53;1.50;;;;;;;7.10;54.80;100183.41;5113956;28;20408;-76
2022/04/20 04:14:06;;;;;;;5.87;1.73;;;;;;;7.05;55.55;100184.97;5113646;28;20031;-76
2022/04/20 04:16:36;;;;;;;3.67;1.65;;;;;;;7.04;55.68;100199.38;5113935;28;20265;-76
2022/04/20 04:19:02;;;;;;;4.65;1.50;;;;;;;6.91;55.93;100197.38;5113732;28;20031;-76
2022/04/20 04:21:27;;;;;;;4.28;1.40;;;;;;;6.99;55.73;100191.91;5114042;28;20096;-76
2022/04/20 04:23:53;;;;;;;4.68;1.58;;;;;;;6.91;56.15;100200.06;5114105;28;20040;-76
2022/04/20 04:26:18;;;;;;;4.47;1.70;;;;;;;6.93;56.09;100203.38;5113599;28;20027;-76
2022/04/20 04:28:43;;;;;;;3.80;1.50;;;;;;;6.89;56.68;100200.25;5113421;28;20055;-76
2022/04/20 04:31:08;;;;;;;7.93;1.93;;;;;;;6.99;55.95;100201.81;5113674;28;20024;-75
2022/04/20 04:33:35;;;;;;;5.07;1.27;;;;;;;6.94;56.74;100197.00;5114546;28;20377;-76
2022/04/20 04:36:00;;;;;;;;;;;;;;;6.98;56.14;100206.34;5114382;28;20069;-76
2022/04/20 04:38:26;;;;;;;4.63;1.70;;;;;;;6.88;56.86;100203.94;5113308;28;19907;-75
2022/04/20 04:40:52;;;;;;;6.47;2.63;;;;;;;6.88;56.71;100209.28;5113590;28;20149;-76
2022/04/20 04:43:17;;;;;;;5.70;2.00;;;;;;;6.85;56.85;100209.66;5113621;28;20265;-76
2022/04/20 04:48:42;;;;;;;6.57;1.75;;;;;;;6.91;56.55;100208.09;5113187;28;20031;-75
2022/04/20 04:51:09;;;;;;;3.63;1.65;;;;;;;6.84;57.46;100213.34;5111647;28;20024;-75
2022/04/20 04:53:34;;;;;;;4.75;1.90;;;;;;;6.82;56.93;100206.53;5113081;28;20106;-75
2022/04/20 04:56:00;;;;;;;6.03;1.85;;;;;;;6.80;57.32;100211.25;5113293;28;20084;-75
2022/04/20 04:58:25;;;;;;;4.13;1.80;;;;;;;6.73;57.34;100215.69;5113556;28;20043;-76
2022/04/20 05:00:51;;;;;;;5.63;1.63;;;;;;;6.78;58.04;100213.28;5113090;28;20028;-76
2022/04/20 05:03:16;;;;;;;3.65;1.48;;;;;;;6.82;57.85;100212.72;5113067;28;20035;-76
2022/04/20 05:05:46;;;;;;;4.85;1.60;;;;;;;6.86;57.79;100214.00;5113191;28;20567;-76
2022/04/20 05:08:11;;;;;;;5.13;1.88;;;;;;;6.95;57.37;100220.94;5111663;28;20061;-76
2022/04/20 05:10:36;;;;;;;5.57;1.63;;;;;;;6.89;57.24;100216.31;5116165;28;20439;-76
2022/04/20 05:13:06;;;;;;;3.90;1.40;;;;;;;6.88;56.65;100221.84;5116923;28;20497;-75
2022/04/20 05:15:32;;;;;;;8.15;1.90;;;;;;;6.83;57.79;100214.38;5117025;28;20028;-75
2022/04/20 05:17:57;;;;;;;4.22;1.80;;;;;;;6.89;57.36;100220.84;5117117;28;20091;-75
2022/04/20 05:20:23;;;;;;;4.50;1.90;;;;;;;6.95;56.92;100220.94;5115967;28;20036;-75
2022/04/20 05:22:49;;;;;;;5.83;2.43;;;;;;;6.98;57.07;100227.78;5117286;28;20378;-75
2022/04/20 05:25:15;;;;;;;5.57;1.70;;;;;;;6.94;57.42;100219.28;5117318;28;20664;-76
2022/04/20 05:27:40;;;;;;;4.97;1.80;;;;;;;7.05;56.74;100219.81;5117261;28;20052;-76
2022/04/20 05:30:07;;;;;;;5.50;1.85;;;;;;;6.99;56.84;100226.72;5117158;28;20060;-76
2022/04/20 05:32:33;;;;;;;4.72;1.83;;;;;;;6.86;56.97;100226.56;5116980;28;20115;-75
2022/04/20 05:34:58;;;;;;;5.40;2.37;;;;;;;6.89;57.05;100218.16;5117367;28;20134;-76
2022/04/20 05:42:53;;;;;;;5.30;2.10;;;;;;;7.09;55.87;100221.94;5117532;28;20115;-76
2022/04/20 05:45:19;;;;;;;5.05;2.05;;;;;;;7.02;56.08;100221.00;5117311;28;20051;-76
2022/04/20 05:47:45;;;;;;;5.25;1.95;;;;;;;7.07;56.25;100221.28;5116940;28;20038;-75
2022/04/20 05:50:10;;;;;;;5.20;1.75;;;;;;;7.08;55.86;100225.63;5116250;28;20453;-75
2022/04/20 05:52:36;;;;;;;4.13;1.87;;;;;;;7.11;55.58;100219.91;5098567;28;20093;-76
2022/04/20 05:55:02;;;;;;;6.97;2.05;;;;;;;7.07;55.69;100223.97;5116428;28;20016;-76
2022/04/20 05:57:27;;;;;;;5.22;1.98;;;;;;;7.26;55.59;100223.38;5098039;28;20035;-76
2022/04/20 05:59:52;;;;;;;5.27;2.10;;;;;;;7.35;55.53;100221.41;5116323;28;20027;-76
2022/04/20 06:02:18;;;;;;;6.50;1.87;;;;;;;7.40;55.55;100223.53;5117013;28;20035;-75
2022/04/20 06:04:43;;;;;;;5.70;2.20;;;;;;;7.34;55.72;100218.94;5117143;28;20032;-76
2022/04/20 06:07:08;;;;;;;5.30;2.20;;;;;;;7.40;55.65;100213.63;5117769;28;20456;-75
2022/04/20 06:09:34;;;;;;;7.10;2.50;;;;;;;7.37;55.31;100210.50;5116573;28;20027;-75
2022/04/20 06:11:59;;;;;;;6.47;2.97;;;;;;;7.52;55.48;100211.31;5115902;28;20019;-75
2022/04/20 06:14:24;;;;;;;5.27;2.40;;;;;;;7.59;55.07;100214.84;5097591;28;20312;-76
2022/04/20 06:16:50;;;;;;;5.60;2.20;;;;;;;7.75;55.10;100211.09;5116097;28;20390;-76
2022/04/20 06:19:16;;;;;;;5.22;2.17;;;;;;;7.63;55.05;100214.28;5116024;28;20062;-76
2022/04/20 06:21:41;;;;;;;7.00;2.53;;;;;;;7.73;54.82;100210.44;5097725;28;20039;-76
2022/04/20 06:24:06;;;;;;;4.90;2.10;;;;;;;7.91;54.92;100218.88;5115932;28;20462;-75
2022/04/20 06:26:31;;;;;;;4.50;1.67;;;;;;;8.10;54.35;100214.72;5097687;28;20024;-75
2022/04/20 06:28:57;;;;;;;5.33;2.00;;;;;;;8.21;54.90;100211.53;5115402;28;20044;-75
2022/04/20 06:31:22;;;;;;;5.43;2.67;;;;;;;8.11;54.32;100209.16;5115546;28;20111;-76
2022/04/20 06:33:47;;;;;;;5.07;2.03;;;;;;;8.11;54.43;100213.69;5115515;28;20027;-76
2022/04/20 06:36:13;;;;;;;4.73;2.57;;;;;;;8.31;54.16;100217.38;5116084;28;20070;-76
2022/04/20 06:38:38;;;;;;;6.97;2.77;;;;;;;8.32;53.45;100217.19;5115575;28;20031;-75
2022/04/20 06:41:03;;;;;;;4.83;1.80;;;;;;;8.55;53.79;100214.28;5115434;28;20389;-75
2022/04/20 06:43:29;;;;;;;6.40;2.67;;;;;;;8.72;53.43;100213.97;5115715;28;20458;-76
2022/04/20 06:45:54;;;;;;;7.70;3.63;;;;;;;8.54;53.81;100219.84;5115846;28;20386;-75
2022/04/20 06:48:20;;;;;;;6.78;2.15;;;;;;;8.91;52.75;100221.31;5115696;28;20035;-76
2022/04/20 06:50:45;;;;;;;4.97;2.20;;;;;;;9.58;50.87;100220.50;5115125;28;20089;-76
2022/04/20 06:58:41;;;;;;;4.55;1.73;;;;;;;9.97;48.54;100225.97;5115208;28;20055;-75
2022/04/20 07:01:07;;;;;;;5.63;1.95;;;;;;;9.68;49.14;100218.25;5096914;28;20039;-76
2022/04/20 07:03:34;;;;;;;5.60;1.88;;;;;;;9.59;50.25;100217.63;5096940;28;20027;-76
2022/04/20 07:06:00;;;;;;;5.45;1.92;;;;;;;9.70;50.71;100214.31;5096663;28;20043;-76
2022/04/20 07:08:28;;;;;;;;;;;;;;;9.74;49.93;100218.25;5115306;28;20487;-76
2022/04/20 07:10:54;;;;;;;5.70;2.53;;;;;;;9.65;49.82;100213.28;5114940;28;20323;-76
2022/04/20 07:13:19;;;;;;;5.77;2.10;;;;;;;9.53;50.26;100217.59;5097007;28;20106;-78
2022/04/20 07:15:45;;;;;;;6.88;2.08;;;;;;;9.56;49.85;100214.50;5115540;28;20034;-76
2022/04/20 07:18:11;;;;;;;5.38;1.80;;;;;;;9.62;50.46;100221.78;5115418;28;20063;-80
2022/04/20 07:20:36;;;;;;;4.30;1.67;;;;;;;9.72;49.73;100217.63;5115641;28;20051;-78
2022/04/20 07:23:02;;;;;;;3.93;1.70;;;;;;;9.88;49.36;100213.72;5115472;28;20043;-77
2022/04/20 07:25:29;;;;;;;5.93;1.83;;;;;;;10.03;49.18;100219.75;5115835;28;20020;-76
2022/04/20 07:27:55;;;;;;;4.45;1.90;;;;;;;10.14;49.16;100226.38;5114546;28;20363;-76
2022/04/20 07:30:20;;;;;;;4.85;1.55;;;;;;;10.13;48.93;100229.28;5096077;28;20085;-77
2022/04/20 07:32:47;;;;;;;5.13;1.67;;;;;;;10.33;48.14;100222.06;5095187;28;20072;-76
2022/04/20 07:35:12;;;;;;;4.85;1.63;;;;;;;10.41;47.59;100219.16;5114876;28;20158;-78
2022/04/20 07:37:38;;;;;;;4.38;1.65;;;;;;;10.69;47.11;100227.00;5114094;28;20055;-77
2022/04/20 07:40:04;;;;;;;4.75;1.80;;;;;;;10.56;47.95;100227.84;5114278;28;20130;-77
2022/04/20 07:42:29;;;;;;;4.32;1.60;;;;;;;10.89;46.33;100224.25;5114508;28;20067;-75
2022/04/20 07:44:56;;;;;;;6.73;1.80;;;;;;;11.04;46.48;100231.03;5113940;28;20027;-76
2022/04/20 07:47:24;;;;;;;3.40;1.52;;;;;;;11.36;45.56;100226.56;5114208;28;20031;-76
2022/04/20 07:52:42;;;;;;;3.53;1.42;;;;;;;11.30;44.03;100240.91;5115103;28;20042;-76
2022/04/20 07:55:18;;;;;;;4.95;1.60;;;;;;;11.26;43.47;100241.56;5114140;28;20039;-76
2022/04/20 07:57:45;;;;;;;5.03;2.10;;;;;;;11.14;44.72;100239.50;5114282;28;20474;-76
2022/04/20 08:00:13;;;;;;;4.15;1.70;;;;;;;11.54;44.80;100242.03;5114541;28;20133;-77
2022/04/20 08:02:39;;;;;;;3.55;1.60;;;;;;;11.68;43.02;100240.09;5114041;28;20028;-76
2022/04/20 08:05:05;;;;;;;;;;;;;;;11.84;42.52;100239.59;5114947;28;20040;-76
2022/04/20 08:07:30;;;;;;;3.28;1.23;;;;;;;11.70;41.66;100240.69;5114105;28;19922;-74
2022/04/20 08:09:55;;;;;;;3.50;1.70;;;;;;;11.81;42.14;100234.66;5095925;28;20032;-74
2022/04/20 08:12:21;;;;;;;4.43;1.67;;;;;;;11.91;41.56;100235.00;5096555;28;20039;-74
2022/04/20 08:14:46;;;;;;;3.13;1.23;;;;;;;11.85;42.74;100235.03;5113676;28;20114;-75
2022/04/20 08:17:11;;;;;;;4.43;1.67;;;;;;;12.18;42.26;100236.44;5114278;28;20110;-78
2022/04/20 08:19:37;;;;;;;3.80;1.47;;;;;;;12.00;42.59;100232.88;5095539;28;20118;-77
2022/04/20 08:22:04;;;;;;;2.80;1.27;;;;;;;12.22;41.81;100236.00;5114620;28;20114;-77
2022/04/20 08:24:29;;;;;;;4.28;1.45;;;;;;;12.32;41.19;100244.47;5113990;28;20034;-78
2022/04/20 08:26:55;;;;;;;4.13;1.60;;;;;;;12.47;39.50;100243.06;5114316;28;20024;-76
2022/04/20 08:29:20;;;;;;;6.13;1.10;;;;;;;12.55;39.71;100246.53;5114025;28;20062;-75
2022/04/20 08:31:45;;;;;;;3.53;1.60;;;;;;;12.66;41.51;100235.00;5116761;28;20038;-76
2022/04/20 08:34:11;;;;;;;3.57;1.50;;;;;;;12.64;39.14;100240.63;5120428;28;20284;-77
2022/04/20 08:36:36;;;;;;;3.57;1.57;;;;;;;12.74;39.54;100243.63;5101006;28;20460;-74
2022/04/20 08:39:01;;;;;;;4.03;1.70;;;;;;;12.86;39.74;100246.44;5099977;28;20031;-79
2022/04/20 08:41:27;;;;;;;5.85;1.40;;;;;;;12.97;39.42;100239.47;5101853;28;20457;-80
2022/04/20 08:43:53;;;;;;;3.27;1.30;;;;;;;13.13;39.92;100234.28;5117340;28;20031;-80
2022/04/20 08:46:18;;;;;;;2.97;1.25;;;;;;;13.34;38.61;100232.19;5118937;28;20031;-79
2022/04/20 08:48:44;;;;;;;4.50;1.75;;;;;;;13.36;38.40;100233.63;5118445;28;20031;-77
2022/04/20 08:51:09;;;;;;;3.95;1.92;;;;;;;13.41;38.72;100235.66;5118194;28;20028;-83
2022/04/20 08:53:36;;;;;;;4.72;1.48;;;;;;;13.45;38.33;100232.22;5125723;28;20055;-81
2022/04/20 08:58:48;;;;;;;1.90;0.93;;;;;;;13.53;36.67;100234.63;5128197;28;20523;-79
2022/04/20 09:01:15;;;;;;;2.67;1.02;;;;;;;13.61;37.07;100238.09;5121324;28;20028;-78
2022/04/20 09:03:42;;;;;;;;;;;;;;;13.58;36.28;100233.13;5099977;28;20035;-80
2022/04/20 09:06:09;;;;;;;5.88;1.23;;;;;;;13.64;36.45;100221.38;5117592;28;19907;-79
2022/04/20 09:08:34;;;;;;;2.83;1.20;;;;;;;13.67;36.53;100224.44;5117277;28;20032;-80
2022/04/20 09:11:00;;;;;;;3.53;1.30;;;;;;;13.65;35.94;100236.56;5098321;28;20035;-79
2022/04/20 09:13:38;;;;;;;3.05;1.25;;;;;;;13.70;35.98;100228.59;5116008;28;20102;-79
2022/04/20 09:16:08;;;;;;;3.70;1.30;;;;;;;13.55;35.96;100212.75;5098519;28;20042;-79
2022/04/20 09:18:34;;;;;;;2.50;1.17;;;;;;;13.83;35.83;100218.38;5115949;28;20066;-79
2022/04/20 09:21:07;;;;;;;3.45;1.48;;;;;;;13.81;35.88;100225.06;5116145;28;20031;-79
2022/04/20 09:23:35;;;;;;;3.17;1.20;;;;;;;13.84;36.29;100213.78;5097806;28;20066;-81
2022/04/20 09:26:09;;;;;;;3.15;1.30;;;;;;;14.20;36.60;100218.22;5116854;28;20028;-82
2022/04/20 09:28:40;;;;;;;3.42;1.17;;;;;;;14.09;35.60;100210.91;5098772;28;20478;-80
2022/04/20 09:31:07;;;;;;;6.35;1.50;;;;;;;14.10;35.10;100216.09;5117429;28;20119;-80
2022/04/20 09:33:43;;;;;;;4.95;1.10;;;;;;;13.75;35.34;100197.06;5115447;28;20371;-79
2022/04/20 09:36:11;;;;;;;2.95;1.30;;;;;;;14.03;35.49;100201.81;5116989;28;20102;-80
2022/04/20 09:38:39;;;;;;;3.72;1.20;;;;;;;14.31;34.58;100201.16;5116567;28;20034;-80
2022/04/20 09:41:09;;;;;;;4.13;1.35;;;;;;;14.46;34.65;100201.56;5116532;28;20119;-80
2022/04/20 09:43:35;;;;;;;3.00;1.00;;;;;;;14.25;34.88;100192.09;5116912;28;20064;-80
2022/04/20 09:48:50;;;;;;;2.38;1.00;;;;;;;14.36;34.83;100197.72;5117324;28;20327;-79
2022/04/20 09:49:08;;;;;;;2.60;1.10;;;;;;;14.36;34.92;100197.72;5114948;28;20075;-79
2022/04/20 09:51:38;;;;;;;3.15;1.15;;;;;;;14.59;34.39;100193.19;5115458;28;20031;-79
2022/04/20 09:54:03;;;;;;;2.70;1.10;;;;;;;14.58;34.05;100199.66;5116279;28;20061;-79
2022/04/20 09:56:29;;;;;;;2.90;1.00;;;;;;;14.46;34.09;100184.47;5100050;28;20096;-79
2022/04/20 09:59:02;;;;;;;4.78;1.27;;;;;;;14.48;34.10;100201.31;5101048;28;20038;-79
2022/04/20 10:01:34;;;;;;;2.58;1.13;;;;;;;14.39;34.17;100189.97;5119724;28;20034;-79
2022/04/20 10:04:02;;;;;;;3.47;1.25;;;;;;;14.51;33.84;100190.00;5119498;28;20039;-80
2022/04/20 10:06:28;;;;;;;3.38;1.10;;;;;;;14.61;34.39;100182.09;5119284;28;20477;-79
2022/04/20 10:08:54;;;;;;;2.70;1.05;;;;;;;14.87;34.07;100176.16;5118575;28;20063;-79
2022/04/20 10:11:24;;;;;;;3.70;1.15;;;;;;;15.19;33.42;100178.44;5118181;28;20027;-80
2022/04/20 10:16:39;;;;;;;3.40;1.45;;;;;;;14.40;34.74;100179.94;5117861;28;20390;-76
2022/04/20 10:19:06;;;;;;;;;;;;;;;14.74;34.29;100187.25;5119503;28;20087;-78
2022/04/20 10:21:37;;;;;;;2.90;1.50;;;;;;;14.51;34.89;100169.13;5119732;28;20010;-78
2022/04/20 10:24:05;;;;;;;3.85;1.17;;;;;;;14.84;34.30;100168.50;5117655;28;20110;-75
2022/04/20 10:26:33;;;;;;;3.17;1.38;;;;;;;14.96;33.92;100165.75;5117320;28;20031;-76
2022/04/20 10:29:08;;;;;;;2.67;1.00;;;;;;;14.94;33.83;100157.84;5100567;28;20044;-77
2022/04/20 10:31:50;;;;;;;3.50;1.48;;;;;;;14.93;34.08;100152.66;5118883;28;20024;-75
2022/04/20 10:34:19;;;;;;;4.18;1.73;;;;;;;15.19;33.58;100151.31;5098127;28;20027;-77
2022/04/20 10:36:58;;;;;;;3.20;1.00;;;;;;;14.62;33.79;100145.78;5117339;28;20519;-76
2022/04/20 10:39:27;;;;;;;3.03;1.10;;;;;;;14.84;33.68;100141.38;5116935;28;20031;-76
2022/04/20 10:42:17;;;;;;;2.90;1.00;;;;;;;14.85;33.73;100156.59;5117376;28;20111;-79
2022/04/20 10:45:05;;;;;;;2.80;1.27;;;;;;;14.90;33.90;100153.97;5117998;28;20032;-76
2022/04/20 10:47:38;;;;;;;3.58;1.40;;;;;;;14.75;33.85;100153.66;5116561;28;20046;-77
2022/04/20 10:50:16;;;;;;;2.55;1.00;;;;;;;14.86;34.11;100136.53;5116176;28;20450;-77
2022/04/20 10:52:46;;;;;;;3.40;1.33;;;;;;;14.55;34.32;100128.81;5116502;28;20084;-79
2022/04/20 10:55:11;;;;;;;2.35;0.82;;;;;;;14.94;33.64;100130.72;5117685;28;20035;-77
2022/04/20 10:57:39;;;;;;;4.80;1.38;;;;;;;14.84;33.91;100125.09;5116495;28;20023;-76
2022/04/20 11:00:25;;;;;;;3.15;1.10;;;;;;;15.08;33.42;100127.72;5097668;28;20122;-77
2022/04/20 11:02:55;;;;;;;3.40;1.15;;;;;;;15.08;33.12;100125.03;5115655;28;20032;-77
2022/04/20 11:05:22;;;;;;;4.60;1.50;;;;;;;15.29;32.49;100113.50;5097694;28;20036;-76
2022/04/20 11:08:00;;;;;;;2.97;1.35;;;;;;;15.28;32.73;100107.22;5115055;28;20114;-77
2022/04/20 11:10:26;;;;;;;3.28;1.38;;;;;;;15.38;32.83;100103.91;5116079;28;20092;-77
2022/04/20 11:18:44;;;;;;;3.20;1.30;;;;;;;15.31;33.13;100097.78;5115114;28;20131;-78
2022/04/20 11:21:10;;;;;;;4.32;1.50;;;;;;;15.78;32.96;100097.53;5117110;28;20058;-78
2022/04/20 11:23:55;;;;;;;;;;;;;;;15.72;32.87;100112.13;5115646;28;20039;-78
2022/04/20 11:26:30;;;;;;;2.88;1.27;;;;;;;15.55;33.37;100103.91;5115575;28;20374;-77
2022/04/20 11:29:10;;;;;;;4.43;1.23;;;;;;;15.68;33.47;100103.63;5115791;28;20075;-78
2022/04/20 11:31:42;;;;;;;3.42;1.35;;;;;;;15.88;32.44;100101.25;5115482;28;20367;-78
2022/04/20 11:34:08;;;;;;;3.42;0.90;;;;;;;16.02;31.86;100106.34;5097068;28;20019;-77
2022/04/20 11:36:38;;;;;;;3.17;1.30;;;;;;;15.83;32.76;100097.63;5114942;28;20049;-77
2022/04/20 11:39:03;;;;;;;2.75;1.20;;;;;;;16.11;32.45;100094.81;5115331;28;20097;-77
2022/04/20 11:41:29;;;;;;;2.97;1.10;;;;;;;16.14;31.61;100098.91;5115173;28;20035;-77
2022/04/20 11:43:55;;;;;;;3.67;1.65;;;;;;;16.12;31.91;100096.44;5096837;28;20024;-78
2022/04/20 11:46:20;;;;;;;3.97;1.40;;;;;;;16.08;32.57;100089.06;5115256;28;20032;-79
2022/04/20 11:48:51;;;;;;;3.60;1.30;;;;;;;16.21;32.27;100081.38;5115488;28;20028;-77
2022/04/20 11:51:28;;;;;;;3.00;0.98;;;;;;;15.87;32.18;100088.72;5115566;28;20054;-74
2022/04/20 11:53:54;;;;;;;4.68;1.17;;;;;;;16.38;31.91;100083.22;5097960;28;20024;-78
2022/04/20 11:56:39;;;;;;;;;;;;;;;16.45;31.89;100081.16;5117443;28;20111;-78
2022/04/20 11:59:06;;;;;;;3.33;1.33;;;;;;;16.54;31.70;100077.72;5117333;28;19914;-78
2022/04/20 12:01:33;;;;;;;3.58;1.40;;;;;;;15.96;32.19;100070.09;5119135;28;20081;-78